Аэропорт: Одесса. Одесса

ICAO: UKOO

METAR:
2018/07/16 19:30
UKOO 161930Z 28003MPS CAVOK 21/12 Q1005 R34/090060 NOSIG
METAR:
2018/07/16 18:15
TAF UKOO 161706Z 1618/1718 29003MPS 6000 SCT015 SCT020CB TX28/1712Z TN17/1702Z PROB40 
      TEMPO 1618/1624 2100 -TSRA 
      BECMG 1706/1707 23003MPS